sensor_id;sensor_type;location;lat;lon;timestamp;pressure;altitude;pressure_sealevel;temperature
20736;BMP180;10528;52.124;5.196;2024-02-26T00:00:12;99864.00;;;11.90
20736;BMP180;10528;52.124;5.196;2024-02-26T00:02:39;99877.00;;;11.90
20736;BMP180;10528;52.124;5.196;2024-02-26T00:05:07;99870.00;;;12.00
20736;BMP180;10528;52.124;5.196;2024-02-26T00:07:35;99872.00;;;11.90
20736;BMP180;10528;52.124;5.196;2024-02-26T00:10:03;99875.00;;;12.00
20736;BMP180;10528;52.124;5.196;2024-02-26T00:12:30;99871.00;;;11.90
20736;BMP180;10528;52.124;5.196;2024-02-26T00:14:57;99869.00;;;11.90
20736;BMP180;10528;52.124;5.196;2024-02-26T00:17:25;99870.00;;;11.90
20736;BMP180;10528;52.124;5.196;2024-02-26T00:19:52;99868.00;;;11.90
20736;BMP180;10528;52.124;5.196;2024-02-26T00:22:20;99872.00;;;11.90
20736;BMP180;10528;52.124;5.196;2024-02-26T00:24:48;99870.00;;;11.80
20736;BMP180;10528;52.124;5.196;2024-02-26T00:27:15;99874.00;;;11.80
20736;BMP180;10528;52.124;5.196;2024-02-26T00:29:42;99876.00;;;11.90
20736;BMP180;10528;52.124;5.196;2024-02-26T00:32:09;99874.00;;;11.80
20736;BMP180;10528;52.124;5.196;2024-02-26T00:34:36;99877.00;;;11.80
20736;BMP180;10528;52.124;5.196;2024-02-26T00:37:03;99876.00;;;11.80
20736;BMP180;10528;52.124;5.196;2024-02-26T00:39:30;99883.00;;;11.80
20736;BMP180;10528;52.124;5.196;2024-02-26T00:41:57;99872.00;;;11.80
20736;BMP180;10528;52.124;5.196;2024-02-26T00:44:24;99878.00;;;11.80
20736;BMP180;10528;52.124;5.196;2024-02-26T00:46:51;99878.00;;;11.80
20736;BMP180;10528;52.124;5.196;2024-02-26T00:49:18;99880.00;;;11.80
20736;BMP180;10528;52.124;5.196;2024-02-26T00:51:45;99884.00;;;11.70
20736;BMP180;10528;52.124;5.196;2024-02-26T00:54:12;99886.00;;;11.70
20736;BMP180;10528;52.124;5.196;2024-02-26T00:56:39;99890.00;;;11.70
20736;BMP180;10528;52.124;5.196;2024-02-26T00:59:06;99892.00;;;11.70
20736;BMP180;10528;52.124;5.196;2024-02-26T01:01:33;99889.00;;;11.60
20736;BMP180;10528;52.124;5.196;2024-02-26T01:03:59;99880.00;;;11.60
20736;BMP180;10528;52.124;5.196;2024-02-26T01:06:26;99885.00;;;11.60
20736;BMP180;10528;52.124;5.196;2024-02-26T01:08:53;99883.00;;;11.60
20736;BMP180;10528;52.124;5.196;2024-02-26T01:11:20;99884.00;;;11.60
20736;BMP180;10528;52.124;5.196;2024-02-26T01:13:47;99878.00;;;11.60
20736;BMP180;10528;52.124;5.196;2024-02-26T01:16:15;99880.00;;;11.50
20736;BMP180;10528;52.124;5.196;2024-02-26T01:18:42;99878.00;;;11.50
20736;BMP180;10528;52.124;5.196;2024-02-26T01:21:09;99884.00;;;11.50
20736;BMP180;10528;52.124;5.196;2024-02-26T01:23:36;99874.00;;;11.50
20736;BMP180;10528;52.124;5.196;2024-02-26T01:26:03;99877.00;;;11.50
20736;BMP180;10528;52.124;5.196;2024-02-26T01:28:31;99882.00;;;11.50
20736;BMP180;10528;52.124;5.196;2024-02-26T01:30:58;99878.00;;;11.50
20736;BMP180;10528;52.124;5.196;2024-02-26T01:33:26;99884.00;;;11.50
20736;BMP180;10528;52.124;5.196;2024-02-26T01:35:53;99870.00;;;11.40
20736;BMP180;10528;52.124;5.196;2024-02-26T01:38:21;99874.00;;;11.40
20736;BMP180;10528;52.124;5.196;2024-02-26T01:40:47;99879.00;;;11.40
20736;BMP180;10528;52.124;5.196;2024-02-26T01:43:14;99879.00;;;11.40
20736;BMP180;10528;52.124;5.196;2024-02-26T01:45:41;99877.00;;;11.40
20736;BMP180;10528;52.124;5.196;2024-02-26T01:48:08;99880.00;;;11.40
20736;BMP180;10528;52.124;5.196;2024-02-26T01:50:40;99876.00;;;11.30
20736;BMP180;10528;52.124;5.196;2024-02-26T01:53:08;99875.00;;;11.40
20736;BMP180;10528;52.124;5.196;2024-02-26T01:55:36;99881.00;;;11.40
20736;BMP180;10528;52.124;5.196;2024-02-26T01:58:07;99880.00;;;11.40
20736;BMP180;10528;52.124;5.196;2024-02-26T02:00:34;99893.00;;;11.40
20736;BMP180;10528;52.124;5.196;2024-02-26T02:03:03;99887.00;;;11.30
20736;BMP180;10528;52.124;5.196;2024-02-26T02:05:31;99882.00;;;11.40
20736;BMP180;10528;52.124;5.196;2024-02-26T02:07:58;99888.00;;;11.30
20736;BMP180;10528;52.124;5.196;2024-02-26T02:10:27;99890.00;;;11.30
20736;BMP180;10528;52.124;5.196;2024-02-26T02:12:54;99894.00;;;11.30
20736;BMP180;10528;52.124;5.196;2024-02-26T02:15:21;99893.00;;;11.30
20736;BMP180;10528;52.124;5.196;2024-02-26T02:17:48;99895.00;;;11.30
20736;BMP180;10528;52.124;5.196;2024-02-26T02:20:17;99905.00;;;11.30
20736;BMP180;10528;52.124;5.196;2024-02-26T02:22:46;99898.00;;;11.30
20736;BMP180;10528;52.124;5.196;2024-02-26T02:25:13;99898.00;;;11.30
20736;BMP180;10528;52.124;5.196;2024-02-26T02:27:41;99906.00;;;11.30
20736;BMP180;10528;52.124;5.196;2024-02-26T02:30:10;99909.00;;;11.30
20736;BMP180;10528;52.124;5.196;2024-02-26T02:32:40;99914.00;;;11.30
20736;BMP180;10528;52.124;5.196;2024-02-26T02:35:10;99905.00;;;11.30
20736;BMP180;10528;52.124;5.196;2024-02-26T02:37:37;99905.00;;;11.30
20736;BMP180;10528;52.124;5.196;2024-02-26T02:40:05;99920.00;;;11.30
20736;BMP180;10528;52.124;5.196;2024-02-26T02:42:32;99912.00;;;11.30
20736;BMP180;10528;52.124;5.196;2024-02-26T02:44:59;99916.00;;;11.30
20736;BMP180;10528;52.124;5.196;2024-02-26T02:47:26;99918.00;;;11.30
20736;BMP180;10528;52.124;5.196;2024-02-26T02:49:53;99926.00;;;11.30
20736;BMP180;10528;52.124;5.196;2024-02-26T02:52:19;99926.00;;;11.30
20736;BMP180;10528;52.124;5.196;2024-02-26T02:54:46;99927.00;;;11.30
20736;BMP180;10528;52.124;5.196;2024-02-26T02:57:14;99938.00;;;11.30
20736;BMP180;10528;52.124;5.196;2024-02-26T02:59:41;99932.00;;;11.30
20736;BMP180;10528;52.124;5.196;2024-02-26T03:02:08;99944.00;;;11.30
20736;BMP180;10528;52.124;5.196;2024-02-26T03:04:35;99951.00;;;11.30
20736;BMP180;10528;52.124;5.196;2024-02-26T03:07:02;99950.00;;;11.20
20736;BMP180;10528;52.124;5.196;2024-02-26T03:09:29;99952.00;;;11.20
20736;BMP180;10528;52.124;5.196;2024-02-26T03:11:56;99945.00;;;11.20
20736;BMP180;10528;52.124;5.196;2024-02-26T03:14:23;99961.00;;;11.30
20736;BMP180;10528;52.124;5.196;2024-02-26T03:16:54;99957.00;;;11.30
20736;BMP180;10528;52.124;5.196;2024-02-26T03:19:21;99963.00;;;11.30
20736;BMP180;10528;52.124;5.196;2024-02-26T03:21:49;99968.00;;;11.30
20736;BMP180;10528;52.124;5.196;2024-02-26T03:24:16;99977.00;;;11.30
20736;BMP180;10528;52.124;5.196;2024-02-26T03:26:43;99973.00;;;11.30
20736;BMP180;10528;52.124;5.196;2024-02-26T03:29:10;99986.00;;;11.30
20736;BMP180;10528;52.124;5.196;2024-02-26T03:31:37;99988.00;;;11.30
20736;BMP180;10528;52.124;5.196;2024-02-26T03:34:04;99985.00;;;11.30
20736;BMP180;10528;52.124;5.196;2024-02-26T03:36:31;99990.00;;;11.30
20736;BMP180;10528;52.124;5.196;2024-02-26T03:38:57;99986.00;;;11.20
20736;BMP180;10528;52.124;5.196;2024-02-26T03:41:25;99981.00;;;11.20
20736;BMP180;10528;52.124;5.196;2024-02-26T03:43:53;99982.00;;;11.20
20736;BMP180;10528;52.124;5.196;2024-02-26T03:46:19;99992.00;;;11.20
20736;BMP180;10528;52.124;5.196;2024-02-26T03:48:46;99985.00;;;11.20
20736;BMP180;10528;52.124;5.196;2024-02-26T03:51:13;99990.00;;;11.30
20736;BMP180;10528;52.124;5.196;2024-02-26T03:53:40;99982.00;;;11.30
20736;BMP180;10528;52.124;5.196;2024-02-26T03:56:08;99994.00;;;11.30
20736;BMP180;10528;52.124;5.196;2024-02-26T03:58:37;99994.00;;;11.20
20736;BMP180;10528;52.124;5.196;2024-02-26T04:01:07;99999.00;;;11.20
20736;BMP180;10528;52.124;5.196;2024-02-26T04:03:34;99991.00;;;11.20
20736;BMP180;10528;52.124;5.196;2024-02-26T04:06:02;99990.00;;;11.20
20736;BMP180;10528;52.124;5.196;2024-02-26T04:08:29;100001.00;;;11.20
20736;BMP180;10528;52.124;5.196;2024-02-26T04:10:56;99988.00;;;11.20
20736;BMP180;10528;52.124;5.196;2024-02-26T04:13:23;99995.00;;;11.20
20736;BMP180;10528;52.124;5.196;2024-02-26T04:15:51;100000.00;;;11.20
20736;BMP180;10528;52.124;5.196;2024-02-26T04:18:18;99998.00;;;11.20
20736;BMP180;10528;52.124;5.196;2024-02-26T04:20:45;99997.00;;;11.20
20736;BMP180;10528;52.124;5.196;2024-02-26T04:23:12;100009.00;;;11.20
20736;BMP180;10528;52.124;5.196;2024-02-26T04:25:38;100012.00;;;11.20
20736;BMP180;10528;52.124;5.196;2024-02-26T04:28:05;100017.00;;;11.20
20736;BMP180;10528;52.124;5.196;2024-02-26T04:30:32;100014.00;;;11.20
20736;BMP180;10528;52.124;5.196;2024-02-26T04:32:59;100008.00;;;11.20
20736;BMP180;10528;52.124;5.196;2024-02-26T04:35:26;100000.00;;;11.20
20736;BMP180;10528;52.124;5.196;2024-02-26T04:37:53;100019.00;;;11.20
20736;BMP180;10528;52.124;5.196;2024-02-26T04:40:20;100005.00;;;11.20
20736;BMP180;10528;52.124;5.196;2024-02-26T04:42:47;100009.00;;;11.20
20736;BMP180;10528;52.124;5.196;2024-02-26T04:45:14;100014.00;;;11.20
20736;BMP180;10528;52.124;5.196;2024-02-26T04:47:41;100002.00;;;11.20
20736;BMP180;10528;52.124;5.196;2024-02-26T04:50:08;100009.00;;;11.20
20736;BMP180;10528;52.124;5.196;2024-02-26T04:52:36;100019.00;;;11.20
20736;BMP180;10528;52.124;5.196;2024-02-26T04:55:03;100023.00;;;11.20
20736;BMP180;10528;52.124;5.196;2024-02-26T04:57:30;100016.00;;;11.10
20736;BMP180;10528;52.124;5.196;2024-02-26T04:59:58;100025.00;;;11.10
20736;BMP180;10528;52.124;5.196;2024-02-26T05:02:24;100018.00;;;11.10
20736;BMP180;10528;52.124;5.196;2024-02-26T05:04:51;100021.00;;;11.10
20736;BMP180;10528;52.124;5.196;2024-02-26T05:07:18;100035.00;;;11.10
20736;BMP180;10528;52.124;5.196;2024-02-26T05:09:46;100040.00;;;11.10
20736;BMP180;10528;52.124;5.196;2024-02-26T05:12:16;100049.00;;;11.10
20736;BMP180;10528;52.124;5.196;2024-02-26T05:14:43;100044.00;;;11.00
20736;BMP180;10528;52.124;5.196;2024-02-26T05:17:10;100045.00;;;11.00
20736;BMP180;10528;52.124;5.196;2024-02-26T05:19:37;100044.00;;;11.00
20736;BMP180;10528;52.124;5.196;2024-02-26T05:22:04;100050.00;;;11.00
20736;BMP180;10528;52.124;5.196;2024-02-26T05:24:30;100045.00;;;11.00
20736;BMP180;10528;52.124;5.196;2024-02-26T05:26:59;100061.00;;;11.00
20736;BMP180;10528;52.124;5.196;2024-02-26T05:29:27;100058.00;;;11.00
20736;BMP180;10528;52.124;5.196;2024-02-26T05:31:53;100046.00;;;11.00
20736;BMP180;10528;52.124;5.196;2024-02-26T05:34:21;100057.00;;;10.90
20736;BMP180;10528;52.124;5.196;2024-02-26T05:36:49;100051.00;;;10.90
20736;BMP180;10528;52.124;5.196;2024-02-26T05:39:16;100057.00;;;10.90
20736;BMP180;10528;52.124;5.196;2024-02-26T05:41:46;100065.00;;;10.90
20736;BMP180;10528;52.124;5.196;2024-02-26T05:44:13;100061.00;;;10.90
20736;BMP180;10528;52.124;5.196;2024-02-26T05:46:41;100066.00;;;10.90
20736;BMP180;10528;52.124;5.196;2024-02-26T05:49:09;100069.00;;;11.00
20736;BMP180;10528;52.124;5.196;2024-02-26T05:51:36;100074.00;;;11.00
20736;BMP180;10528;52.124;5.196;2024-02-26T05:54:03;100063.00;;;10.90
20736;BMP180;10528;52.124;5.196;2024-02-26T05:56:30;100077.00;;;10.90
20736;BMP180;10528;52.124;5.196;2024-02-26T05:58:57;100080.00;;;10.90
20736;BMP180;10528;52.124;5.196;2024-02-26T06:01:24;100086.00;;;10.90
20736;BMP180;10528;52.124;5.196;2024-02-26T06:03:52;100085.00;;;10.90
20736;BMP180;10528;52.124;5.196;2024-02-26T06:06:19;100090.00;;;10.90
20736;BMP180;10528;52.124;5.196;2024-02-26T06:08:49;100102.00;;;10.90
20736;BMP180;10528;52.124;5.196;2024-02-26T06:11:16;100100.00;;;10.90
20736;BMP180;10528;52.124;5.196;2024-02-26T06:13:43;100086.00;;;10.90
20736;BMP180;10528;52.124;5.196;2024-02-26T06:16:10;100096.00;;;10.90
20736;BMP180;10528;52.124;5.196;2024-02-26T06:18:36;100082.00;;;10.90
20736;BMP180;10528;52.124;5.196;2024-02-26T06:21:04;100097.00;;;10.90
20736;BMP180;10528;52.124;5.196;2024-02-26T06:23:31;100121.00;;;10.90
20736;BMP180;10528;52.124;5.196;2024-02-26T06:25:58;100122.00;;;10.90
20736;BMP180;10528;52.124;5.196;2024-02-26T06:28:25;100123.00;;;10.80
20736;BMP180;10528;52.124;5.196;2024-02-26T06:30:52;100124.00;;;10.80
20736;BMP180;10528;52.124;5.196;2024-02-26T06:33:19;100115.00;;;10.90
20736;BMP180;10528;52.124;5.196;2024-02-26T06:35:46;100114.00;;;10.80
20736;BMP180;10528;52.124;5.196;2024-02-26T06:38:13;100111.00;;;10.90
20736;BMP180;10528;52.124;5.196;2024-02-26T06:40:40;100130.00;;;10.90
20736;BMP180;10528;52.124;5.196;2024-02-26T06:43:07;100127.00;;;10.90
20736;BMP180;10528;52.124;5.196;2024-02-26T06:45:34;100123.00;;;10.90
20736;BMP180;10528;52.124;5.196;2024-02-26T06:48:01;100133.00;;;10.90
20736;BMP180;10528;52.124;5.196;2024-02-26T06:50:29;100142.00;;;10.90
20736;BMP180;10528;52.124;5.196;2024-02-26T06:52:56;100145.00;;;10.90
20736;BMP180;10528;52.124;5.196;2024-02-26T06:55:23;100154.00;;;10.90
20736;BMP180;10528;52.124;5.196;2024-02-26T06:57:50;100147.00;;;10.90
20736;BMP180;10528;52.124;5.196;2024-02-26T07:00:17;100153.00;;;10.90
20736;BMP180;10528;52.124;5.196;2024-02-26T07:02:44;100153.00;;;10.90
20736;BMP180;10528;52.124;5.196;2024-02-26T07:05:11;100148.00;;;10.90
20736;BMP180;10528;52.124;5.196;2024-02-26T07:07:39;100169.00;;;10.90
20736;BMP180;10528;52.124;5.196;2024-02-26T07:10:07;100168.00;;;10.90
20736;BMP180;10528;52.124;5.196;2024-02-26T07:12:34;100169.00;;;10.90
20736;BMP180;10528;52.124;5.196;2024-02-26T07:15:04;100173.00;;;10.90
20736;BMP180;10528;52.124;5.196;2024-02-26T07:17:32;100188.00;;;10.90
20736;BMP180;10528;52.124;5.196;2024-02-26T07:20:00;100174.00;;;10.90
20736;BMP180;10528;52.124;5.196;2024-02-26T07:22:30;100172.00;;;10.90
20736;BMP180;10528;52.124;5.196;2024-02-26T07:24:57;100188.00;;;10.80
20736;BMP180;10528;52.124;5.196;2024-02-26T07:27:24;100197.00;;;10.80
20736;BMP180;10528;52.124;5.196;2024-02-26T07:29:51;100189.00;;;10.70
20736;BMP180;10528;52.124;5.196;2024-02-26T07:32:17;100190.00;;;10.80
20736;BMP180;10528;52.124;5.196;2024-02-26T07:34:44;100186.00;;;10.80
20736;BMP180;10528;52.124;5.196;2024-02-26T07:37:12;100191.00;;;10.80
20736;BMP180;10528;52.124;5.196;2024-02-26T07:39:39;100192.00;;;10.80
20736;BMP180;10528;52.124;5.196;2024-02-26T07:42:06;100187.00;;;10.80
20736;BMP180;10528;52.124;5.196;2024-02-26T07:44:33;100194.00;;;10.90
20736;BMP180;10528;52.124;5.196;2024-02-26T07:47:00;100194.00;;;10.90
20736;BMP180;10528;52.124;5.196;2024-02-26T07:49:30;100204.00;;;10.80
20736;BMP180;10528;52.124;5.196;2024-02-26T07:51:57;100216.00;;;10.80
20736;BMP180;10528;52.124;5.196;2024-02-26T07:54:25;100210.00;;;10.80
20736;BMP180;10528;52.124;5.196;2024-02-26T07:56:52;100214.00;;;10.90
20736;BMP180;10528;52.124;5.196;2024-02-26T07:59:19;100226.00;;;10.90
20736;BMP180;10528;52.124;5.196;2024-02-26T08:01:53;100220.00;;;10.90
20736;BMP180;10528;52.124;5.196;2024-02-26T08:04:24;100236.00;;;10.80
20736;BMP180;10528;52.124;5.196;2024-02-26T08:06:53;100246.00;;;10.90
20736;BMP180;10528;52.124;5.196;2024-02-26T08:09:22;100245.00;;;10.90
20736;BMP180;10528;52.124;5.196;2024-02-26T08:11:50;100234.00;;;10.90
20736;BMP180;10528;52.124;5.196;2024-02-26T08:14:16;100255.00;;;11.00
20736;BMP180;10528;52.124;5.196;2024-02-26T08:16:43;100255.00;;;10.90
20736;BMP180;10528;52.124;5.196;2024-02-26T08:19:10;100243.00;;;10.90
20736;BMP180;10528;52.124;5.196;2024-02-26T08:21:41;100249.00;;;10.90
20736;BMP180;10528;52.124;5.196;2024-02-26T08:24:08;100257.00;;;11.00
20736;BMP180;10528;52.124;5.196;2024-02-26T08:26:35;100257.00;;;11.00
20736;BMP180;10528;52.124;5.196;2024-02-26T08:29:02;100265.00;;;11.10
20736;BMP180;10528;52.124;5.196;2024-02-26T08:31:28;100277.00;;;11.10
20736;BMP180;10528;52.124;5.196;2024-02-26T08:33:57;100262.00;;;11.10
20736;BMP180;10528;52.124;5.196;2024-02-26T08:36:25;100278.00;;;11.10
20736;BMP180;10528;52.124;5.196;2024-02-26T08:38:52;100274.00;;;11.10
20736;BMP180;10528;52.124;5.196;2024-02-26T08:41:19;100272.00;;;11.10
20736;BMP180;10528;52.124;5.196;2024-02-26T08:43:46;100282.00;;;11.10
20736;BMP180;10528;52.124;5.196;2024-02-26T08:46:13;100283.00;;;11.10
20736;BMP180;10528;52.124;5.196;2024-02-26T08:48:40;100286.00;;;11.20
20736;BMP180;10528;52.124;5.196;2024-02-26T08:51:08;100292.00;;;11.20
20736;BMP180;10528;52.124;5.196;2024-02-26T08:53:36;100299.00;;;11.20
20736;BMP180;10528;52.124;5.196;2024-02-26T08:56:10;100281.00;;;11.20
20736;BMP180;10528;52.124;5.196;2024-02-26T08:58:43;100290.00;;;11.20
20736;BMP180;10528;52.124;5.196;2024-02-26T09:01:10;100303.00;;;11.20
20736;BMP180;10528;52.124;5.196;2024-02-26T09:03:37;100315.00;;;11.10
20736;BMP180;10528;52.124;5.196;2024-02-26T09:06:04;100305.00;;;11.10
20736;BMP180;10528;52.124;5.196;2024-02-26T09:08:33;100307.00;;;11.20
20736;BMP180;10528;52.124;5.196;2024-02-26T09:11:02;100302.00;;;11.20
20736;BMP180;10528;52.124;5.196;2024-02-26T09:13:30;100301.00;;;11.10
20736;BMP180;10528;52.124;5.196;2024-02-26T09:15:57;100317.00;;;11.10
20736;BMP180;10528;52.124;5.196;2024-02-26T09:18:25;100332.00;;;11.10
20736;BMP180;10528;52.124;5.196;2024-02-26T09:20:52;100320.00;;;11.00
20736;BMP180;10528;52.124;5.196;2024-02-26T09:23:19;100319.00;;;11.10
20736;BMP180;10528;52.124;5.196;2024-02-26T09:25:46;100332.00;;;11.10
20736;BMP180;10528;52.124;5.196;2024-02-26T09:28:13;100341.00;;;11.10
20736;BMP180;10528;52.124;5.196;2024-02-26T09:30:43;100340.00;;;11.10
20736;BMP180;10528;52.124;5.196;2024-02-26T09:33:10;100340.00;;;11.10
20736;BMP180;10528;52.124;5.196;2024-02-26T09:35:38;100349.00;;;11.20
20736;BMP180;10528;52.124;5.196;2024-02-26T09:38:05;100352.00;;;11.20
20736;BMP180;10528;52.124;5.196;2024-02-26T09:40:34;100343.00;;;11.20
20736;BMP180;10528;52.124;5.196;2024-02-26T09:43:05;100347.00;;;11.10
20736;BMP180;10528;52.124;5.196;2024-02-26T09:45:33;100344.00;;;11.10
20736;BMP180;10528;52.124;5.196;2024-02-26T09:48:04;100358.00;;;11.10
20736;BMP180;10528;52.124;5.196;2024-02-26T09:50:32;100365.00;;;11.10
20736;BMP180;10528;52.124;5.196;2024-02-26T09:52:59;100368.00;;;11.10
20736;BMP180;10528;52.124;5.196;2024-02-26T09:55:29;100368.00;;;11.10
20736;BMP180;10528;52.124;5.196;2024-02-26T09:57:57;100382.00;;;11.10
20736;BMP180;10528;52.124;5.196;2024-02-26T10:00:27;100382.00;;;11.10
20736;BMP180;10528;52.124;5.196;2024-02-26T10:03:04;100389.00;;;11.10
20736;BMP180;10528;52.124;5.196;2024-02-26T10:05:33;100383.00;;;11.20
20736;BMP180;10528;52.124;5.196;2024-02-26T10:08:01;100392.00;;;11.20
20736;BMP180;10528;52.124;5.196;2024-02-26T10:10:29;100387.00;;;11.10
20736;BMP180;10528;52.124;5.196;2024-02-26T10:12:56;100398.00;;;11.20
20736;BMP180;10528;52.124;5.196;2024-02-26T10:15:23;100402.00;;;11.20
20736;BMP180;10528;52.124;5.196;2024-02-26T10:17:50;100411.00;;;11.20
20736;BMP180;10528;52.124;5.196;2024-02-26T10:20:18;100405.00;;;11.20
20736;BMP180;10528;52.124;5.196;2024-02-26T10:22:48;100397.00;;;11.20
20736;BMP180;10528;52.124;5.196;2024-02-26T10:25:16;100413.00;;;11.20
20736;BMP180;10528;52.124;5.196;2024-02-26T10:27:43;100421.00;;;11.10
20736;BMP180;10528;52.124;5.196;2024-02-26T10:32:47;100419.00;;;11.20
20736;BMP180;10528;52.124;5.196;2024-02-26T10:35:18;100432.00;;;11.20
20736;BMP180;10528;52.124;5.196;2024-02-26T10:37:49;100417.00;;;11.20
20736;BMP180;10528;52.124;5.196;2024-02-26T10:40:17;100428.00;;;11.30
20736;BMP180;10528;52.124;5.196;2024-02-26T10:42:44;100449.00;;;11.30
20736;BMP180;10528;52.124;5.196;2024-02-26T10:45:13;100431.00;;;11.30
20736;BMP180;10528;52.124;5.196;2024-02-26T10:47:41;100457.00;;;11.30
20736;BMP180;10528;52.124;5.196;2024-02-26T10:50:13;100458.00;;;11.30
20736;BMP180;10528;52.124;5.196;2024-02-26T10:52:42;100463.00;;;11.30
20736;BMP180;10528;52.124;5.196;2024-02-26T10:55:16;100465.00;;;11.40
20736;BMP180;10528;52.124;5.196;2024-02-26T10:57:52;100468.00;;;11.40
20736;BMP180;10528;52.124;5.196;2024-02-26T11:00:19;100476.00;;;11.40
20736;BMP180;10528;52.124;5.196;2024-02-26T11:02:48;100481.00;;;11.40
20736;BMP180;10528;52.124;5.196;2024-02-26T11:05:15;100478.00;;;11.40
20736;BMP180;10528;52.124;5.196;2024-02-26T11:07:44;100471.00;;;11.40
20736;BMP180;10528;52.124;5.196;2024-02-26T11:10:11;100487.00;;;11.40
20736;BMP180;10528;52.124;5.196;2024-02-26T11:12:39;100492.00;;;11.40
20736;BMP180;10528;52.124;5.196;2024-02-26T11:15:08;100488.00;;;11.40
20736;BMP180;10528;52.124;5.196;2024-02-26T11:17:37;100484.00;;;11.40
20736;BMP180;10528;52.124;5.196;2024-02-26T11:20:09;100494.00;;;11.50
20736;BMP180;10528;52.124;5.196;2024-02-26T11:22:38;100503.00;;;11.50
20736;BMP180;10528;52.124;5.196;2024-02-26T11:25:05;100491.00;;;11.50
20736;BMP180;10528;52.124;5.196;2024-02-26T11:27:39;100495.00;;;11.50
20736;BMP180;10528;52.124;5.196;2024-02-26T11:30:13;100502.00;;;11.60
20736;BMP180;10528;52.124;5.196;2024-02-26T11:32:40;100502.00;;;11.60
20736;BMP180;10528;52.124;5.196;2024-02-26T11:35:11;100516.00;;;11.60
20736;BMP180;10528;52.124;5.196;2024-02-26T11:37:51;100498.00;;;11.60
20736;BMP180;10528;52.124;5.196;2024-02-26T11:40:19;100501.00;;;11.60
20736;BMP180;10528;52.124;5.196;2024-02-26T11:42:48;100504.00;;;11.60
20736;BMP180;10528;52.124;5.196;2024-02-26T11:48:20;100510.00;;;11.60
20736;BMP180;10528;52.124;5.196;2024-02-26T11:50:51;100512.00;;;11.70
20736;BMP180;10528;52.124;5.196;2024-02-26T11:53:30;100524.00;;;11.70
20736;BMP180;10528;52.124;5.196;2024-02-26T11:58:43;100533.00;;;11.70
20736;BMP180;10528;52.124;5.196;2024-02-26T12:04:22;100536.00;;;11.70
20736;BMP180;10528;52.124;5.196;2024-02-26T12:06:58;100537.00;;;11.70
20736;BMP180;10528;52.124;5.196;2024-02-26T12:09:41;100541.00;;;11.70
20736;BMP180;10528;52.124;5.196;2024-02-26T12:12:10;100538.00;;;11.70
20736;BMP180;10528;52.124;5.196;2024-02-26T12:14:55;100543.00;;;11.70
20736;BMP180;10528;52.124;5.196;2024-02-26T12:17:25;100546.00;;;11.70
20736;BMP180;10528;52.124;5.196;2024-02-26T12:19:52;100551.00;;;11.80
20736;BMP180;10528;52.124;5.196;2024-02-26T12:22:20;100550.00;;;11.80
20736;BMP180;10528;52.124;5.196;2024-02-26T12:24:47;100554.00;;;11.80
20736;BMP180;10528;52.124;5.196;2024-02-26T12:27:14;100561.00;;;11.80
20736;BMP180;10528;52.124;5.196;2024-02-26T12:29:42;100562.00;;;11.80
20736;BMP180;10528;52.124;5.196;2024-02-26T12:32:09;100559.00;;;11.80
20736;BMP180;10528;52.124;5.196;2024-02-26T12:34:37;100561.00;;;11.80
20736;BMP180;10528;52.124;5.196;2024-02-26T12:37:04;100570.00;;;11.80
20736;BMP180;10528;52.124;5.196;2024-02-26T12:39:31;100563.00;;;11.80
20736;BMP180;10528;52.124;5.196;2024-02-26T12:41:59;100564.00;;;11.80
20736;BMP180;10528;52.124;5.196;2024-02-26T12:44:26;100577.00;;;11.70
20736;BMP180;10528;52.124;5.196;2024-02-26T12:47:01;100589.00;;;11.70
20736;BMP180;10528;52.124;5.196;2024-02-26T12:49:30;100592.00;;;11.70
20736;BMP180;10528;52.124;5.196;2024-02-26T12:51:58;100599.00;;;11.70
20736;BMP180;10528;52.124;5.196;2024-02-26T12:54:30;100594.00;;;11.80
20736;BMP180;10528;52.124;5.196;2024-02-26T12:57:03;100589.00;;;11.80
20736;BMP180;10528;52.124;5.196;2024-02-26T12:59:31;100605.00;;;11.90
20736;BMP180;10528;52.124;5.196;2024-02-26T13:01:58;100608.00;;;11.90
20736;BMP180;10528;52.124;5.196;2024-02-26T13:04:29;100615.00;;;12.00
20736;BMP180;10528;52.124;5.196;2024-02-26T13:06:57;100618.00;;;12.00
20736;BMP180;10528;52.124;5.196;2024-02-26T13:09:34;100618.00;;;12.00
20736;BMP180;10528;52.124;5.196;2024-02-26T13:12:05;100615.00;;;12.00
20736;BMP180;10528;52.124;5.196;2024-02-26T13:14:33;100621.00;;;12.00
20736;BMP180;10528;52.124;5.196;2024-02-26T13:17:01;100614.00;;;12.10
20736;BMP180;10528;52.124;5.196;2024-02-26T13:19:29;100634.00;;;12.10
20736;BMP180;10528;52.124;5.196;2024-02-26T13:22:06;100634.00;;;12.10
20736;BMP180;10528;52.124;5.196;2024-02-26T13:24:35;100630.00;;;12.10
20736;BMP180;10528;52.124;5.196;2024-02-26T13:27:03;100639.00;;;12.10
20736;BMP180;10528;52.124;5.196;2024-02-26T13:29:32;100639.00;;;12.00
20736;BMP180;10528;52.124;5.196;2024-02-26T13:31:59;100634.00;;;12.10
20736;BMP180;10528;52.124;5.196;2024-02-26T13:34:28;100644.00;;;12.00
20736;BMP180;10528;52.124;5.196;2024-02-26T13:36:56;100644.00;;;12.00
20736;BMP180;10528;52.124;5.196;2024-02-26T13:39:25;100638.00;;;12.00
20736;BMP180;10528;52.124;5.196;2024-02-26T13:41:53;100654.00;;;12.00
20736;BMP180;10528;52.124;5.196;2024-02-26T13:44:21;100654.00;;;12.10
20736;BMP180;10528;52.124;5.196;2024-02-26T13:46:48;100652.00;;;12.10
20736;BMP180;10528;52.124;5.196;2024-02-26T13:49:18;100655.00;;;12.10
20736;BMP180;10528;52.124;5.196;2024-02-26T13:51:46;100662.00;;;12.10
20736;BMP180;10528;52.124;5.196;2024-02-26T13:54:13;100665.00;;;12.10
20736;BMP180;10528;52.124;5.196;2024-02-26T13:56:41;100661.00;;;12.10
20736;BMP180;10528;52.124;5.196;2024-02-26T13:59:12;100673.00;;;12.10
20736;BMP180;10528;52.124;5.196;2024-02-26T14:01:39;100681.00;;;12.10
20736;BMP180;10528;52.124;5.196;2024-02-26T14:04:06;100676.00;;;12.10
20736;BMP180;10528;52.124;5.196;2024-02-26T14:06:35;100685.00;;;12.20
20736;BMP180;10528;52.124;5.196;2024-02-26T14:09:03;100686.00;;;12.20
20736;BMP180;10528;52.124;5.196;2024-02-26T14:11:31;100690.00;;;12.20
20736;BMP180;10528;52.124;5.196;2024-02-26T14:13:58;100685.00;;;12.20